sensor_id;sensor_type;location;lat;lon;timestamp;pressure;altitude;pressure_sealevel;temperature;humidity
36664;BME280;53333;51.976;20.144;2022-11-23T00:01:18;99349.59;;;2.71;71.98
36664;BME280;53333;51.976;20.144;2022-11-23T00:03:54;99342.53;;;2.72;71.99
36664;BME280;53333;51.976;20.144;2022-11-23T00:06:28;99361.94;;;2.69;71.90
36664;BME280;53333;51.976;20.144;2022-11-23T00:09:04;99347.13;;;2.65;72.10
36664;BME280;53333;51.976;20.144;2022-11-23T00:11:38;99351.59;;;2.63;72.22
36664;BME280;53333;51.976;20.144;2022-11-23T00:14:18;99351.53;;;2.65;72.15
36664;BME280;53333;51.976;20.144;2022-11-23T00:17:02;99351.53;;;2.65;72.31
36664;BME280;53333;51.976;20.144;2022-11-23T00:19:36;99353.25;;;2.66;72.19
36664;BME280;53333;51.976;20.144;2022-11-23T00:22:09;99346.25;;;2.65;72.15
36664;BME280;53333;51.976;20.144;2022-11-23T00:24:43;99349.81;;;2.64;72.18
36664;BME280;53333;51.976;20.144;2022-11-23T00:27:17;99342.84;;;2.61;72.41
36664;BME280;53333;51.976;20.144;2022-11-23T00:29:50;99349.59;;;2.71;72.03
36664;BME280;53333;51.976;20.144;2022-11-23T00:32:25;99344.59;;;2.62;72.26
36664;BME280;53333;51.976;20.144;2022-11-23T00:35:02;99344.63;;;2.61;72.14
36664;BME280;53333;51.976;20.144;2022-11-23T00:37:36;99342.00;;;2.61;72.29
36664;BME280;53333;51.976;20.144;2022-11-23T00:40:10;99345.56;;;2.58;72.42
36664;BME280;53333;51.976;20.144;2022-11-23T00:42:44;99342.13;;;2.56;72.48
36664;BME280;53333;51.976;20.144;2022-11-23T00:45:17;99350.03;;;2.56;72.64
36664;BME280;53333;51.976;20.144;2022-11-23T00:47:52;99352.66;;;2.56;72.61
36664;BME280;53333;51.976;20.144;2022-11-23T00:50:26;99360.53;;;2.58;72.58
36664;BME280;53333;51.976;20.144;2022-11-23T00:52:59;99360.56;;;2.56;72.53
36664;BME280;53333;51.976;20.144;2022-11-23T00:55:33;99357.09;;;2.56;72.68
36664;BME280;53333;51.976;20.144;2022-11-23T00:58:07;99356.16;;;2.57;72.77
36664;BME280;53333;51.976;20.144;2022-11-23T01:00:40;99354.44;;;2.56;72.62
36664;BME280;53333;51.976;20.144;2022-11-23T01:03:41;99349.25;;;2.52;72.71
36664;BME280;53333;51.976;20.144;2022-11-23T01:06:19;99351.06;;;2.50;72.80
36664;BME280;53333;51.976;20.144;2022-11-23T01:08:58;99357.22;;;2.51;72.97
36664;BME280;53333;51.976;20.144;2022-11-23T01:11:33;99369.44;;;2.53;72.88
36664;BME280;53333;51.976;20.144;2022-11-23T01:14:07;99371.13;;;2.56;72.64
36664;BME280;53333;51.976;20.144;2022-11-23T01:16:44;99375.47;;;2.59;72.82
36664;BME280;53333;51.976;20.144;2022-11-23T01:19:19;99369.25;;;2.60;72.75
36664;BME280;53333;51.976;20.144;2022-11-23T01:21:56;99368.34;;;2.61;72.98
36664;BME280;53333;51.976;20.144;2022-11-23T01:24:32;99364.88;;;2.60;72.95
36664;BME280;53333;51.976;20.144;2022-11-23T01:27:05;99363.94;;;2.61;73.00
36664;BME280;53333;51.976;20.144;2022-11-23T01:29:39;99365.63;;;2.64;72.96
36664;BME280;53333;51.976;20.144;2022-11-23T01:32:12;99370.81;;;2.67;72.96
36664;BME280;53333;51.976;20.144;2022-11-23T01:34:47;99372.53;;;2.68;72.65
36664;BME280;53333;51.976;20.144;2022-11-23T01:37:26;99367.25;;;2.68;72.99
36664;BME280;53333;51.976;20.144;2022-11-23T01:40:02;99368.09;;;2.70;72.81
36664;BME280;53333;51.976;20.144;2022-11-23T01:42:46;99366.31;;;2.70;72.91
36664;BME280;53333;51.976;20.144;2022-11-23T01:45:36;99375.97;;;2.71;73.02
36664;BME280;53333;51.976;20.144;2022-11-23T01:48:13;99368.16;;;2.68;72.84
36664;BME280;53333;51.976;20.144;2022-11-23T01:50:55;99370.75;;;2.70;72.94
36664;BME280;53333;51.976;20.144;2022-11-23T01:53:31;99370.69;;;2.71;73.07
36664;BME280;53333;51.976;20.144;2022-11-23T01:56:14;99371.41;;;2.77;72.92
36664;BME280;53333;51.976;20.144;2022-11-23T01:58:52;99373.16;;;2.78;72.90
36664;BME280;53333;51.976;20.144;2022-11-23T02:01:26;99374.00;;;2.78;72.76
36664;BME280;53333;51.976;20.144;2022-11-23T02:04:02;99380.19;;;2.77;72.92
36664;BME280;53333;51.976;20.144;2022-11-23T02:06:40;99379.31;;;2.77;72.91
36664;BME280;53333;51.976;20.144;2022-11-23T02:09:15;99377.63;;;2.74;73.12
36664;BME280;53333;51.976;20.144;2022-11-23T02:11:52;99380.31;;;2.72;73.14
36664;BME280;53333;51.976;20.144;2022-11-23T02:14:26;99382.94;;;2.72;72.91
36664;BME280;53333;51.976;20.144;2022-11-23T02:17:00;99378.66;;;2.70;72.97
36664;BME280;53333;51.976;20.144;2022-11-23T02:19:41;99377.75;;;2.69;73.11
36664;BME280;53333;51.976;20.144;2022-11-23T02:22:25;99384.78;;;2.70;73.31
36664;BME280;53333;51.976;20.144;2022-11-23T02:25:08;99382.19;;;2.69;73.17
36664;BME280;53333;51.976;20.144;2022-11-23T02:27:49;99379.69;;;2.64;73.35
36664;BME280;53333;51.976;20.144;2022-11-23T02:30:28;99379.72;;;2.63;73.23
36664;BME280;53333;51.976;20.144;2022-11-23T02:33:05;99373.59;;;2.62;73.19
36664;BME280;53333;51.976;20.144;2022-11-23T02:35:47;99375.22;;;2.66;73.37
36664;BME280;53333;51.976;20.144;2022-11-23T02:38:26;99375.22;;;2.66;73.25
36664;BME280;53333;51.976;20.144;2022-11-23T02:41:04;99381.38;;;2.67;73.26
36664;BME280;53333;51.976;20.144;2022-11-23T02:43:39;99371.72;;;2.66;73.22
36664;BME280;53333;51.976;20.144;2022-11-23T02:46:15;99360.38;;;2.64;73.32
36664;BME280;53333;51.976;20.144;2022-11-23T02:48:52;99363.03;;;2.62;73.30
36664;BME280;53333;51.976;20.144;2022-11-23T02:51:25;99365.63;;;2.64;73.27
36664;BME280;53333;51.976;20.144;2022-11-23T02:53:59;99374.34;;;2.66;73.47
36664;BME280;53333;51.976;20.144;2022-11-23T02:56:33;99373.47;;;2.67;73.11
36664;BME280;53333;51.976;20.144;2022-11-23T02:59:09;99376.16;;;2.65;73.32
36664;BME280;53333;51.976;20.144;2022-11-23T03:01:42;99385.81;;;2.65;73.38
36664;BME280;53333;51.976;20.144;2022-11-23T03:04:17;99386.72;;;2.64;73.43
36664;BME280;53333;51.976;20.144;2022-11-23T03:06:58;99377.13;;;2.61;73.40
36664;BME280;53333;51.976;20.144;2022-11-23T03:09:32;99389.47;;;2.61;73.58
36664;BME280;53333;51.976;20.144;2022-11-23T03:12:06;99383.28;;;2.62;73.40
36664;BME280;53333;51.976;20.144;2022-11-23T03:14:41;99391.19;;;2.62;73.44
36664;BME280;53333;51.976;20.144;2022-11-23T03:17:16;99394.66;;;2.64;73.43
36664;BME280;53333;51.976;20.144;2022-11-23T03:19:49;99399.91;;;2.64;73.41
36664;BME280;53333;51.976;20.144;2022-11-23T03:22:23;99389.31;;;2.65;73.48
36664;BME280;53333;51.976;20.144;2022-11-23T03:24:57;99391.00;;;2.68;73.48
36664;BME280;53333;51.976;20.144;2022-11-23T03:27:31;99395.13;;;2.78;73.04
36664;BME280;53333;51.976;20.144;2022-11-23T03:30:09;99383.25;;;2.63;73.08
36664;BME280;53333;51.976;20.144;2022-11-23T03:32:43;99391.19;;;2.62;73.18
36664;BME280;53333;51.976;20.144;2022-11-23T03:35:16;99392.94;;;2.61;73.25
36664;BME280;53333;51.976;20.144;2022-11-23T03:38:10;99380.72;;;2.59;73.25
36664;BME280;53333;51.976;20.144;2022-11-23T03:40:44;99379.00;;;2.58;73.42
36664;BME280;53333;51.976;20.144;2022-11-23T03:43:24;99385.16;;;2.57;73.33
36664;BME280;53333;51.976;20.144;2022-11-23T03:45:59;99387.84;;;2.55;73.59
36664;BME280;53333;51.976;20.144;2022-11-23T03:48:33;99383.41;;;2.57;73.45
36664;BME280;53333;51.976;20.144;2022-11-23T03:51:06;99384.25;;;2.58;73.48
36664;BME280;53333;51.976;20.144;2022-11-23T03:53:41;99377.16;;;2.60;73.69
36664;BME280;53333;51.976;20.144;2022-11-23T03:56:16;99382.41;;;2.61;73.29
36664;BME280;53333;51.976;20.144;2022-11-23T03:58:51;99381.53;;;2.61;73.39
36664;BME280;53333;51.976;20.144;2022-11-23T04:01:26;99378.06;;;2.60;73.20
36664;BME280;53333;51.976;20.144;2022-11-23T04:04:05;99374.56;;;2.58;73.49
36664;BME280;53333;51.976;20.144;2022-11-23T04:06:57;99377.25;;;2.57;73.24
36664;BME280;53333;51.976;20.144;2022-11-23T04:09:35;99389.59;;;2.56;73.39
36664;BME280;53333;51.976;20.144;2022-11-23T04:12:09;99388.72;;;2.56;73.44
36664;BME280;53333;51.976;20.144;2022-11-23T04:14:44;99385.22;;;2.55;73.38
36664;BME280;53333;51.976;20.144;2022-11-23T04:17:19;99387.88;;;2.53;73.47
36664;BME280;53333;51.976;20.144;2022-11-23T04:19:52;99394.03;;;2.54;73.36
36664;BME280;53333;51.976;20.144;2022-11-23T04:22:26;99394.00;;;2.56;73.52
36664;BME280;53333;51.976;20.144;2022-11-23T04:25:00;99387.84;;;2.55;73.57
36664;BME280;53333;51.976;20.144;2022-11-23T04:27:33;99387.84;;;2.55;73.22
36664;BME280;53333;51.976;20.144;2022-11-23T04:30:08;99391.41;;;2.54;73.50
36664;BME280;53333;51.976;20.144;2022-11-23T04:32:45;99387.94;;;2.52;73.35
36664;BME280;53333;51.976;20.144;2022-11-23T04:35:19;99384.50;;;2.48;73.30
36664;BME280;53333;51.976;20.144;2022-11-23T04:37:55;99391.56;;;2.48;73.50
36664;BME280;53333;51.976;20.144;2022-11-23T04:40:31;99388.97;;;2.46;73.45
36664;BME280;53333;51.976;20.144;2022-11-23T04:43:06;99389.88;;;2.45;73.44
36664;BME280;53333;51.976;20.144;2022-11-23T04:45:42;99387.28;;;2.44;73.35
36664;BME280;53333;51.976;20.144;2022-11-23T04:48:26;99387.31;;;2.42;73.80
36664;BME280;53333;51.976;20.144;2022-11-23T04:51:01;99389.09;;;2.42;73.45
36664;BME280;53333;51.976;20.144;2022-11-23T04:53:40;99384.81;;;2.38;73.44
36664;BME280;53333;51.976;20.144;2022-11-23T04:56:14;99378.69;;;2.37;73.52
36664;BME280;53333;51.976;20.144;2022-11-23T04:58:48;99382.81;;;2.47;73.22
36664;BME280;53333;51.976;20.144;2022-11-23T05:01:21;99383.06;;;2.38;73.21
36664;BME280;53333;51.976;20.144;2022-11-23T05:04:19;99385.69;;;2.38;73.31
36664;BME280;53333;51.976;20.144;2022-11-23T05:06:54;99382.22;;;2.36;73.32
36664;BME280;53333;51.976;20.144;2022-11-23T05:09:28;99393.69;;;2.35;73.46
36664;BME280;53333;51.976;20.144;2022-11-23T05:12:07;99388.41;;;2.35;73.26
36664;BME280;53333;51.976;20.144;2022-11-23T05:14:40;99385.78;;;2.35;73.46
36664;BME280;53333;51.976;20.144;2022-11-23T05:17:16;99393.69;;;2.35;73.46
36664;BME280;53333;51.976;20.144;2022-11-23T05:19:53;99382.16;;;2.38;73.51
36664;BME280;53333;51.976;20.144;2022-11-23T05:22:27;99396.16;;;2.41;73.39
36664;BME280;53333;51.976;20.144;2022-11-23T05:25:01;99392.34;;;2.51;72.95
36664;BME280;53333;51.976;20.144;2022-11-23T05:27:37;99401.44;;;2.41;73.00
36664;BME280;53333;51.976;20.144;2022-11-23T05:30:12;99406.88;;;2.35;73.22
36664;BME280;53333;51.976;20.144;2022-11-23T05:32:46;99408.66;;;2.33;73.10
36664;BME280;53333;51.976;20.144;2022-11-23T05:35:23;99409.66;;;2.29;73.42
36664;BME280;53333;51.976;20.144;2022-11-23T05:37:57;99399.13;;;2.29;73.48
36664;BME280;53333;51.976;20.144;2022-11-23T05:40:32;99398.31;;;2.27;73.40
36664;BME280;53333;51.976;20.144;2022-11-23T05:43:08;99399.16;;;2.27;73.46
36664;BME280;53333;51.976;20.144;2022-11-23T05:45:42;99402.59;;;2.29;73.43
36664;BME280;53333;51.976;20.144;2022-11-23T05:48:17;99398.19;;;2.31;73.43
36664;BME280;53333;51.976;20.144;2022-11-23T05:51:00;99393.75;;;2.32;73.59
36664;BME280;53333;51.976;20.144;2022-11-23T05:53:43;99392.84;;;2.33;73.34
36664;BME280;53333;51.976;20.144;2022-11-23T05:56:30;99393.75;;;2.32;73.51
36664;BME280;53333;51.976;20.144;2022-11-23T05:59:18;99393.72;;;2.33;73.30
36664;BME280;53333;51.976;20.144;2022-11-23T06:01:56;99400.66;;;2.36;73.46
36664;BME280;53333;51.976;20.144;2022-11-23T06:04:34;99393.66;;;2.36;73.31
36664;BME280;53333;51.976;20.144;2022-11-23T06:07:12;99387.56;;;2.33;73.39
36664;BME280;53333;51.976;20.144;2022-11-23T06:10:18;99395.53;;;2.31;73.34
36664;BME280;53333;51.976;20.144;2022-11-23T06:12:52;99405.19;;;2.31;73.35
36664;BME280;53333;51.976;20.144;2022-11-23T06:15:27;99399.16;;;2.27;73.25
36664;BME280;53333;51.976;20.144;2022-11-23T06:18:01;99407.91;;;2.28;73.17
36664;BME280;53333;51.976;20.144;2022-11-23T06:20:47;99413.16;;;2.29;73.11
36664;BME280;53333;51.976;20.144;2022-11-23T06:23:22;99410.56;;;2.28;73.19
36664;BME280;53333;51.976;20.144;2022-11-23T06:25:58;99415.91;;;2.25;73.13
36664;BME280;53333;51.976;20.144;2022-11-23T06:28:35;99430.81;;;2.26;72.88
36664;BME280;53333;51.976;20.144;2022-11-23T06:31:09;99424.66;;;2.27;73.03
36664;BME280;53333;51.976;20.144;2022-11-23T06:33:44;99426.44;;;2.25;72.86
36664;BME280;53333;51.976;20.144;2022-11-23T06:36:23;99428.22;;;2.24;73.18
36664;BME280;53333;51.976;20.144;2022-11-23T06:38:58;99431.69;;;2.26;73.06
36664;BME280;53333;51.976;20.144;2022-11-23T06:41:32;99432.56;;;2.27;73.01
36664;BME280;53333;51.976;20.144;2022-11-23T06:44:09;99426.44;;;2.25;73.08
36664;BME280;53333;51.976;20.144;2022-11-23T06:46:46;99437.00;;;2.25;72.96
36664;BME280;53333;51.976;20.144;2022-11-23T06:49:20;99436.94;;;2.26;72.93
36664;BME280;53333;51.976;20.144;2022-11-23T06:52:11;99438.66;;;2.29;72.78
36664;BME280;53333;51.976;20.144;2022-11-23T06:54:46;99436.66;;;2.37;72.63
36664;BME280;53333;51.976;20.144;2022-11-23T06:57:20;99434.25;;;2.29;72.54
36664;BME280;53333;51.976;20.144;2022-11-23T06:59:53;99434.13;;;2.34;72.74
36664;BME280;53333;51.976;20.144;2022-11-23T07:02:35;99439.38;;;2.34;72.67
36664;BME280;53333;51.976;20.144;2022-11-23T07:05:08;99450.66;;;2.39;72.66
36664;BME280;53333;51.976;20.144;2022-11-23T07:07:42;99441.66;;;2.48;72.38
36664;BME280;53333;51.976;20.144;2022-11-23T07:10:24;99444.53;;;2.39;72.49
36664;BME280;53333;51.976;20.144;2022-11-23T07:13:03;99441.13;;;2.35;72.80
36664;BME280;53333;51.976;20.144;2022-11-23T07:15:38;99438.47;;;2.36;72.69
36664;BME280;53333;51.976;20.144;2022-11-23T07:18:13;99432.28;;;2.36;72.79
36664;BME280;53333;51.976;20.144;2022-11-23T07:20:56;99440.16;;;2.38;72.67
36664;BME280;53333;51.976;20.144;2022-11-23T07:23:31;99441.81;;;2.42;72.61
36664;BME280;53333;51.976;20.144;2022-11-23T07:26:06;99442.63;;;2.44;72.60
36664;BME280;53333;51.976;20.144;2022-11-23T07:28:40;99440.00;;;2.44;72.59
36664;BME280;53333;51.976;20.144;2022-11-23T07:31:14;99441.66;;;2.48;72.73
36664;BME280;53333;51.976;20.144;2022-11-23T07:33:48;99438.06;;;2.50;72.54
36664;BME280;53333;51.976;20.144;2022-11-23T07:36:22;99434.50;;;2.53;72.45
36664;BME280;53333;51.976;20.144;2022-11-23T07:38:55;99443.25;;;2.53;72.54
36664;BME280;53333;51.976;20.144;2022-11-23T07:41:30;99438.81;;;2.56;72.44
36664;BME280;53333;51.976;20.144;2022-11-23T07:44:20;99444.91;;;2.58;72.37
36664;BME280;53333;51.976;20.144;2022-11-23T07:46:55;99449.25;;;2.60;72.41
36664;BME280;53333;51.976;20.144;2022-11-23T07:49:29;99453.47;;;2.66;72.36
36664;BME280;53333;51.976;20.144;2022-11-23T07:52:03;99459.53;;;2.69;72.41
36664;BME280;53333;51.976;20.144;2022-11-23T07:54:37;99452.56;;;2.67;72.34
36664;BME280;53333;51.976;20.144;2022-11-23T07:57:12;99449.09;;;2.65;72.27
36664;BME280;53333;51.976;20.144;2022-11-23T07:59:46;99457.09;;;2.63;72.21
36664;BME280;53333;51.976;20.144;2022-11-23T08:02:20;99456.22;;;2.61;72.26
36664;BME280;53333;51.976;20.144;2022-11-23T08:04:54;99465.03;;;2.62;72.18
36664;BME280;53333;51.976;20.144;2022-11-23T08:07:30;99465.03;;;2.62;71.87
36664;BME280;53333;51.976;20.144;2022-11-23T08:10:04;99475.53;;;2.63;72.15
36664;BME280;53333;51.976;20.144;2022-11-23T08:12:43;99464.09;;;2.63;72.01
36664;BME280;53333;51.976;20.144;2022-11-23T08:15:21;99466.78;;;2.61;72.13
36664;BME280;53333;51.976;20.144;2022-11-23T08:18:03;99464.16;;;2.61;72.08
36664;BME280;53333;51.976;20.144;2022-11-23T08:20:40;99459.88;;;2.57;72.06
36664;BME280;53333;51.976;20.144;2022-11-23T08:23:18;99463.41;;;2.56;72.11
36664;BME280;53333;51.976;20.144;2022-11-23T08:26:00;99462.56;;;2.56;72.13
36664;BME280;53333;51.976;20.144;2022-11-23T08:28:50;99463.38;;;2.58;72.11
36664;BME280;53333;51.976;20.144;2022-11-23T08:31:29;99476.56;;;2.58;72.19
36664;BME280;53333;51.976;20.144;2022-11-23T08:34:06;99474.00;;;2.54;72.33
36664;BME280;53333;51.976;20.144;2022-11-23T08:36:40;99481.09;;;2.52;72.19
36664;BME280;53333;51.976;20.144;2022-11-23T08:39:18;99481.06;;;2.54;72.24
36664;BME280;53333;51.976;20.144;2022-11-23T08:41:52;99480.16;;;2.53;72.29
36664;BME280;53333;51.976;20.144;2022-11-23T08:44:27;99472.25;;;2.53;72.27
36664;BME280;53333;51.976;20.144;2022-11-23T08:47:03;99481.88;;;2.56;72.14
36664;BME280;53333;51.976;20.144;2022-11-23T08:49:40;99476.59;;;2.56;72.03
36664;BME280;53333;51.976;20.144;2022-11-23T08:52:15;99481.88;;;2.56;72.27
36664;BME280;53333;51.976;20.144;2022-11-23T08:54:48;99474.81;;;2.57;72.27
36664;BME280;53333;51.976;20.144;2022-11-23T08:57:24;99485.38;;;2.57;72.12
36664;BME280;53333;51.976;20.144;2022-11-23T09:00:04;99477.44;;;2.57;72.24
36664;BME280;53333;51.976;20.144;2022-11-23T09:02:40;99473.06;;;2.57;72.14
36664;BME280;53333;51.976;20.144;2022-11-23T09:05:14;99470.34;;;2.60;72.04
36664;BME280;53333;51.976;20.144;2022-11-23T09:07:50;99465.88;;;2.62;72.14
36664;BME280;53333;51.976;20.144;2022-11-23T09:10:26;99466.75;;;2.63;72.33
36664;BME280;53333;51.976;20.144;2022-11-23T09:13:05;99477.16;;;2.67;72.20
36664;BME280;53333;51.976;20.144;2022-11-23T09:15:40;99477.97;;;2.69;72.17
36664;BME280;53333;51.976;20.144;2022-11-23T09:18:15;99477.81;;;2.76;72.05
36664;BME280;53333;51.976;20.144;2022-11-23T09:20:53;99478.56;;;2.81;72.08
36664;BME280;53333;51.976;20.144;2022-11-23T09:23:38;99477.66;;;2.82;71.98
36664;BME280;53333;51.976;20.144;2022-11-23T09:26:27;99470.59;;;2.82;72.11
36664;BME280;53333;51.976;20.144;2022-11-23T09:29:05;99471.31;;;2.89;71.80
36664;BME280;53333;51.976;20.144;2022-11-23T09:31:43;99472.16;;;2.89;71.79
36664;BME280;53333;51.976;20.144;2022-11-23T09:34:17;99461.63;;;2.89;71.68
36664;BME280;53333;51.976;20.144;2022-11-23T09:36:51;99458.13;;;2.89;71.58
36664;BME280;53333;51.976;20.144;2022-11-23T09:39:32;99458.13;;;2.89;71.60
36664;BME280;53333;51.976;20.144;2022-11-23T09:45:29;99447.38;;;2.95;71.55
36664;BME280;53333;51.976;20.144;2022-11-23T09:48:21;99448.09;;;3.02;71.52
36664;BME280;53333;51.976;20.144;2022-11-23T09:51:00;99443.53;;;3.07;71.34
36664;BME280;53333;51.976;20.144;2022-11-23T09:53:40;99453.03;;;3.13;71.10
36664;BME280;53333;51.976;20.144;2022-11-23T09:56:19;99452.81;;;3.20;70.95
36664;BME280;53333;51.976;20.144;2022-11-23T09:58:55;99448.19;;;3.27;70.96
36664;BME280;53333;51.976;20.144;2022-11-23T10:01:32;99447.13;;;3.34;70.65
36664;BME280;53333;51.976;20.144;2022-11-23T10:04:08;99448.81;;;3.37;70.69
36664;BME280;53333;51.976;20.144;2022-11-23T10:06:53;99439.72;;;3.45;70.52
36664;BME280;53333;51.976;20.144;2022-11-23T10:09:48;99439.50;;;3.53;70.52
36664;BME280;53333;51.976;20.144;2022-11-23T10:12:35;99440.09;;;3.61;70.22
36664;BME280;53333;51.976;20.144;2022-11-23T10:15:22;99437.38;;;3.64;70.22
36664;BME280;53333;51.976;20.144;2022-11-23T10:18:20;99431.84;;;3.72;70.10
36664;BME280;53333;51.976;20.144;2022-11-23T10:21:08;99422.75;;;3.81;69.90
36664;BME280;53333;51.976;20.144;2022-11-23T10:23:55;99425.25;;;3.86;69.67
36664;BME280;53333;51.976;20.144;2022-11-23T10:26:31;99419.91;;;3.87;69.71
36664;BME280;53333;51.976;20.144;2022-11-23T10:29:12;99406.59;;;3.90;69.75
36664;BME280;53333;51.976;20.144;2022-11-23T10:31:47;99404.75;;;3.92;69.47
36664;BME280;53333;51.976;20.144;2022-11-23T10:34:48;99404.50;;;4.00;69.63
36664;BME280;53333;51.976;20.144;2022-11-23T10:37:24;99397.75;;;3.91;69.35
36664;BME280;53333;51.976;20.144;2022-11-23T10:39:58;99403.09;;;3.90;69.36
36664;BME280;53333;51.976;20.144;2022-11-23T10:42:36;99412.03;;;3.86;69.26
36664;BME280;53333;51.976;20.144;2022-11-23T10:45:18;99411.31;;;3.80;69.25
36664;BME280;53333;51.976;20.144;2022-11-23T10:47:53;99409.69;;;3.76;69.57
36664;BME280;53333;51.976;20.144;2022-11-23T10:50:32;99394.81;;;3.74;69.38
36664;BME280;53333;51.976;20.144;2022-11-23T10:53:18;99388.53;;;3.76;69.45
36664;BME280;53333;51.976;20.144;2022-11-23T10:55:57;99388.53;;;3.76;69.28
36664;BME280;53333;51.976;20.144;2022-11-23T10:58:42;99396.31;;;3.81;69.27
36664;BME280;53333;51.976;20.144;2022-11-23T11:01:19;99397.22;;;3.81;69.34
36664;BME280;53333;51.976;20.144;2022-11-23T11:04:01;99398.81;;;3.86;69.39
36664;BME280;53333;51.976;20.144;2022-11-23T11:06:35;99400.72;;;3.82;69.11
36664;BME280;53333;51.976;20.144;2022-11-23T11:09:19;99398.97;;;3.81;69.24
36664;BME280;53333;51.976;20.144;2022-11-23T11:11:53;99406.13;;;3.77;69.04
36664;BME280;53333;51.976;20.144;2022-11-23T11:14:29;99405.34;;;3.75;69.04
36664;BME280;53333;51.976;20.144;2022-11-23T11:17:24;99402.69;;;3.75;69.11
36664;BME280;53333;51.976;20.144;2022-11-23T11:20:00;99404.44;;;3.75;69.09
36664;BME280;53333;51.976;20.144;2022-11-23T11:23:13;99408.72;;;3.79;68.93
36664;BME280;53333;51.976;20.144;2022-11-23T11:26:02;99413.00;;;3.83;68.84
36664;BME280;53333;51.976;20.144;2022-11-23T11:28:41;99406.13;;;3.77;68.85
36664;BME280;53333;51.976;20.144;2022-11-23T11:34:20;99396.47;;;3.76;69.09
36664;BME280;53333;51.976;20.144;2022-11-23T11:37:01;99385.06;;;3.76;68.96
36664;BME280;53333;51.976;20.144;2022-11-23T11:39:41;99392.13;;;3.75;68.85
36664;BME280;53333;51.976;20.144;2022-11-23T11:42:25;99393.84;;;3.76;68.85
36664;BME280;53333;51.976;20.144;2022-11-23T11:45:06;99397.31;;;3.78;68.86
36664;BME280;53333;51.976;20.144;2022-11-23T11:47:50;99399.91;;;3.80;68.88
36664;BME280;53333;51.976;20.144;2022-11-23T11:50:31;99393.78;;;3.78;68.59
36664;BME280;53333;51.976;20.144;2022-11-23T11:53:09;99400.84;;;3.77;68.78
36664;BME280;53333;51.976;20.144;2022-11-23T11:55:50;99402.75;;;3.74;68.82
36664;BME280;53333;51.976;20.144;2022-11-23T12:01:20;99404.63;;;3.70;68.93
36664;BME280;53333;51.976;20.144;2022-11-23T12:04:16;99404.88;;;3.62;68.89
36664;BME280;53333;51.976;20.144;2022-11-23T12:07:08;99403.19;;;3.60;68.93
36664;BME280;53333;51.976;20.144;2022-11-23T12:09:54;99405.00;;;3.58;68.96
36664;BME280;53333;51.976;20.144;2022-11-23T12:12:36;99409.59;;;3.53;68.69
36664;BME280;53333;51.976;20.144;2022-11-23T12:15:18;99410.53;;;3.50;69.02
36664;BME280;53333;51.976;20.144;2022-11-23T12:18:34;99408.75;;;3.51;69.05
36664;BME280;53333;51.976;20.144;2022-11-23T12:21:26;99401.81;;;3.48;69.04
36664;BME280;53333;51.976;20.144;2022-11-23T12:24:07;99404.22;;;3.56;68.75
36664;BME280;53333;51.976;20.144;2022-11-23T12:26:50;99402.81;;;3.44;68.89
36664;BME280;53333;51.976;20.144;2022-11-23T12:29:37;99401.06;;;3.43;69.00
36664;BME280;53333;51.976;20.144;2022-11-23T12:32:23;99393.19;;;3.41;69.02
36664;BME280;53333;51.976;20.144;2022-11-23T12:35:24;99397.56;;;3.42;69.09
36664;BME280;53333;51.976;20.144;2022-11-23T12:38:11;99387.16;;;3.38;69.15
36664;BME280;53333;51.976;20.144;2022-11-23T12:41:06;99393.28;;;3.40;68.98
36664;BME280;53333;51.976;20.144;2022-11-23T12:44:01;99389.78;;;3.38;69.20
36664;BME280;53333;51.976;20.144;2022-11-23T12:46:42;99381.91;;;3.36;69.11
36664;BME280;53333;51.976;20.144;2022-11-23T12:49:34;99371.31;;;3.38;69.08
36664;BME280;53333;51.976;20.144;2022-11-23T12:52:25;99369.44;;;3.41;69.18
36664;BME280;53333;51.976;20.144;2022-11-23T12:55:15;99361.34;;;3.46;69.18
36664;BME280;53333;51.976;20.144;2022-11-23T12:57:57;99364.84;;;3.48;68.99
36664;BME280;53333;51.976;20.144;2022-11-23T13:00:36;99357.72;;;3.50;68.88
36664;BME280;53333;51.976;20.144;2022-11-23T13:03:40;99366.41;;;3.54;68.85
36664;BME280;53333;51.976;20.144;2022-11-23T13:06:51;99368.19;;;3.53;68.82
36664;BME280;53333;51.976;20.144;2022-11-23T13:10:13;99364.75;;;3.51;68.79
36664;BME280;53333;51.976;20.144;2022-11-23T13:13:19;99371.81;;;3.49;68.88
36664;BME280;53333;51.976;20.144;2022-11-23T13:16:20;99359.56;;;3.48;68.79
36664;BME280;53333;51.976;20.144;2022-11-23T13:19:15;99364.78;;;3.50;69.04
36664;BME280;53333;51.976;20.144;2022-11-23T13:21:53;99366.53;;;3.49;68.89
36664;BME280;53333;51.976;20.144;2022-11-23T13:24:28;99361.25;;;3.49;68.71
36664;BME280;53333;51.976;20.144;2022-11-23T13:27:53;99368.94;;;3.57;68.69
36664;BME280;53333;51.976;20.144;2022-11-23T13:30:33;99376.97;;;3.54;68.87
36664;BME280;53333;51.976;20.144;2022-11-23T13:33:36;99383.94;;;3.56;68.69
36664;BME280;53333;51.976;20.144;2022-11-23T13:36:34;99384.63;;;3.61;68.57
36664;BME280;53333;51.976;20.144;2022-11-23T13:40:00;99389.06;;;3.61;68.64
36664;BME280;53333;51.976;20.144;2022-11-23T13:42:35;99385.78;;;3.54;68.65
36664;BME280;53333;51.976;20.144;2022-11-23T13:49:34;99385.03;;;3.49;68.48
36664;BME280;53333;51.976;20.144;2022-11-23T13:52:27;99382.25;;;3.54;68.48
36664;BME280;53333;51.976;20.144;2022-11-23T14:01:04;99397.63;;;3.41;68.68
36664;BME280;53333;51.976;20.144;2022-11-23T14:03:50;99404.41;;;3.50;68.48
36664;BME280;53333;51.976;20.144;2022-11-23T14:06:44;99395.97;;;3.38;68.53
36664;BME280;53333;51.976;20.144;2022-11-23T14:09:24;99398.84;;;3.31;68.78
36664;BME280;53333;51.976;20.144;2022-11-23T14:12:24;99391.00;;;3.27;68.80
36664;BME280;53333;51.976;20.144;2022-11-23T14:15:13;99392.72;;;3.28;68.70
36664;BME280;53333;51.976;20.144;2022-11-23T14:18:15;99395.25;;;3.32;68.80
36664;BME280;53333;51.976;20.144;2022-11-23T14:21:11;99398.03;;;3.27;69.00
36664;BME280;53333;51.976;20.144;2022-11-23T14:24:23;99400.50;;;3.33;68.91
36664;BME280;53333;51.976;20.144;2022-11-23T14:27:19;99411.19;;;3.28;68.85